createdAt,value
2023-02-25T00:00:39.307Z,79.13
2023-02-25T00:03:06.986Z,78.98
2023-02-25T00:05:34.674Z,79.06
2023-02-25T00:08:02.364Z,79.06
2023-02-25T00:10:30.100Z,78.82
2023-02-25T00:13:08.899Z,78.98
2023-02-25T00:15:46.317Z,79.01
2023-02-25T00:18:14.001Z,79.14
2023-02-25T00:20:42.289Z,79.43
2023-02-25T00:23:10.123Z,79.47
2023-02-25T00:25:37.973Z,79.07
2023-02-25T00:28:06.413Z,79.11
2023-02-25T00:30:34.412Z,79.23
2023-02-25T00:33:03.964Z,79.07
2023-02-25T00:35:31.592Z,79.52
2023-02-25T00:38:13.758Z,79.34
2023-02-25T00:40:42.944Z,79.45
2023-02-25T00:43:10.731Z,79.42
2023-02-25T00:45:39.531Z,79.51
2023-02-25T00:48:08.863Z,79.55
2023-02-25T00:50:36.917Z,79.49
2023-02-25T00:53:04.641Z,79.75
2023-02-25T00:55:33.377Z,80.07
2023-02-25T00:58:01.992Z,80.27
2023-02-25T01:00:30.477Z,80.41
2023-02-25T01:02:59.328Z,80.17
2023-02-25T01:05:28.439Z,80.50
2023-02-25T01:07:56.174Z,80.83
2023-02-25T01:10:23.907Z,80.64
2023-02-25T01:12:51.627Z,80.80
2023-02-25T01:15:19.476Z,80.59
2023-02-25T01:17:47.172Z,81.00
2023-02-25T01:20:19.790Z,80.89
2023-02-25T01:22:49.060Z,81.01
2023-02-25T01:25:17.654Z,80.93
2023-02-25T01:27:45.647Z,80.72
2023-02-25T01:30:13.817Z,81.09
2023-02-25T01:32:41.675Z,81.05
2023-02-25T01:35:09.893Z,81.18
2023-02-25T01:37:37.600Z,80.86
2023-02-25T01:40:08.174Z,81.34
2023-02-25T01:42:35.884Z,81.31
2023-02-25T01:45:25.959Z,81.74
2023-02-25T01:47:57.553Z,81.77
2023-02-25T01:50:28.516Z,81.87
2023-02-25T01:52:58.420Z,81.75
2023-02-25T01:55:27.597Z,81.76
2023-02-25T01:57:55.354Z,82.05
2023-02-25T02:00:23.862Z,82.01
2023-02-25T02:02:51.666Z,81.95
2023-02-25T02:05:19.530Z,82.17
2023-02-25T02:07:48.306Z,82.01
2023-02-25T02:10:15.926Z,81.91
2023-02-25T02:12:47.586Z,82.03
2023-02-25T02:15:16.389Z,81.95
2023-02-25T02:17:47.686Z,82.04
2023-02-25T02:20:20.502Z,81.91
2023-02-25T02:22:57.986Z,81.64
2023-02-25T02:26:16.845Z,81.84
2023-02-25T02:28:59.589Z,81.63
2023-02-25T02:31:45.190Z,81.89
2023-02-25T02:34:20.933Z,81.61
2023-02-25T02:36:57.389Z,81.71
2023-02-25T02:39:27.663Z,81.61
2023-02-25T02:42:00.692Z,81.76
2023-02-25T02:44:32.115Z,81.69
2023-02-25T02:47:04.798Z,81.73
2023-02-25T02:49:37.367Z,81.68
2023-02-25T02:52:06.943Z,81.82
2023-02-25T02:54:36.854Z,81.65
2023-02-25T02:57:06.268Z,81.53
2023-02-25T02:59:36.280Z,81.16
2023-02-25T03:02:08.723Z,81.09
2023-02-25T03:04:39.468Z,81.30
2023-02-25T03:07:09.598Z,80.92
2023-02-25T03:09:40.948Z,80.89
2023-02-25T03:12:08.684Z,80.77
2023-02-25T03:14:37.554Z,80.69
2023-02-25T03:17:09.975Z,80.65
2023-02-25T03:19:41.238Z,80.68
2023-02-25T03:22:11.340Z,80.43
2023-02-25T03:24:43.116Z,80.11
2023-02-25T03:27:25.824Z,80.04
2023-02-25T03:29:54.572Z,79.88
2023-02-25T03:32:24.104Z,79.79
2023-02-25T03:34:52.422Z,79.83
2023-02-25T03:37:22.995Z,79.62
2023-02-25T03:39:55.575Z,79.56
2023-02-25T03:42:28.912Z,79.38
2023-02-25T03:44:59.419Z,79.40
2023-02-25T03:47:29.764Z,79.34
2023-02-25T03:49:59.415Z,78.97
2023-02-25T03:52:28.644Z,79.07
2023-02-25T03:54:58.775Z,79.05
2023-02-25T03:57:29.490Z,78.56
2023-02-25T03:59:57.354Z,78.84
2023-02-25T04:02:26.575Z,78.99
2023-02-25T04:04:55.667Z,78.23
2023-02-25T04:07:23.333Z,78.29
2023-02-25T04:09:51.035Z,78.15
2023-02-25T04:12:18.767Z,78.14
2023-02-25T04:14:46.575Z,77.94
2023-02-25T04:17:14.315Z,78.00
2023-02-25T04:19:41.954Z,77.56
2023-02-25T04:22:11.059Z,77.74
2023-02-25T04:24:38.698Z,78.01
2023-02-25T04:27:06.395Z,77.84
2023-02-25T04:29:34.200Z,77.73
2023-02-25T04:32:02.029Z,77.80
2023-02-25T04:34:29.764Z,77.47
2023-02-25T04:36:57.411Z,77.47
2023-02-25T04:39:26.533Z,77.44
2023-02-25T04:41:54.214Z,77.43
2023-02-25T04:44:21.866Z,77.30
2023-02-25T04:46:51.858Z,77.38
2023-02-25T04:49:21.156Z,77.02
2023-02-25T04:51:49.495Z,77.33
2023-02-25T04:54:18.454Z,77.04
2023-02-25T04:56:48.227Z,77.38
2023-02-25T04:59:16.110Z,77.19
2023-02-25T05:01:44.536Z,77.06
2023-02-25T05:04:12.235Z,77.22
2023-02-25T05:06:40.216Z,77.11
2023-02-25T05:09:10.302Z,77.12
2023-02-25T05:11:38.189Z,77.07
2023-02-25T05:14:07.216Z,76.87
2023-02-25T05:16:34.888Z,77.15
2023-02-25T05:19:02.636Z,77.13
2023-02-25T05:21:30.435Z,77.25
2023-02-25T05:23:58.186Z,76.85
2023-02-25T05:26:26.431Z,77.05
2023-02-25T05:28:55.342Z,77.06
2023-02-25T05:31:25.941Z,76.78
2023-02-25T05:33:53.996Z,76.82
2023-02-25T05:36:22.813Z,77.06
2023-02-25T05:38:54.121Z,77.27
2023-02-25T05:41:22.093Z,76.96
2023-02-25T05:43:49.823Z,77.31
2023-02-25T05:46:17.595Z,77.33
2023-02-25T05:48:47.079Z,77.44
2023-02-25T05:51:16.925Z,77.44
2023-02-25T05:53:45.174Z,77.49
2023-02-25T05:56:14.679Z,77.50
2023-02-25T05:58:42.548Z,77.27
2023-02-25T06:01:11.505Z,77.35
2023-02-25T06:03:39.287Z,77.60
2023-02-25T06:06:10.780Z,77.51
2023-02-25T06:08:38.867Z,77.48
2023-02-25T06:11:07.344Z,77.77
2023-02-25T06:13:35.962Z,78.14
2023-02-25T06:16:04.475Z,78.34
2023-02-25T06:18:37.063Z,77.86
2023-02-25T06:21:06.961Z,78.72
2023-02-25T06:23:37.124Z,79.10
2023-02-25T06:26:05.914Z,79.20
2023-02-25T06:28:33.762Z,79.81
2023-02-25T06:31:01.936Z,79.83
2023-02-25T06:33:30.770Z,79.94
2023-02-25T06:35:59.051Z,80.41
2023-02-25T06:38:26.823Z,80.26
2023-02-25T06:40:55.939Z,80.13
2023-02-25T06:43:23.585Z,80.44
2023-02-25T06:45:51.317Z,80.67
2023-02-25T06:48:19.012Z,80.78
2023-02-25T06:50:46.728Z,80.69
2023-02-25T06:53:14.540Z,80.87
2023-02-25T06:55:42.203Z,81.11
2023-02-25T06:58:11.352Z,81.48
2023-02-25T07:00:43.179Z,81.17
2023-02-25T07:03:12.238Z,81.09
2023-02-25T07:05:39.924Z,81.26
2023-02-25T07:08:07.787Z,81.02
2023-02-25T07:10:35.793Z,80.92
2023-02-25T07:13:03.431Z,81.18
2023-02-25T07:15:32.550Z,80.82
2023-02-25T07:18:00.295Z,81.09
2023-02-25T07:20:27.957Z,81.36
2023-02-25T07:22:55.672Z,81.23
2023-02-25T07:25:23.537Z,81.10
2023-02-25T07:27:51.255Z,81.14
2023-02-25T07:30:19.327Z,81.19
2023-02-25T07:32:48.616Z,81.86
2023-02-25T07:35:16.510Z,81.53
2023-02-25T07:37:44.524Z,81.48
2023-02-25T07:40:13.950Z,81.52
2023-02-25T07:42:42.229Z,81.53
2023-02-25T07:45:11.385Z,81.58
2023-02-25T07:47:39.356Z,81.96
2023-02-25T07:50:12.661Z,82.18
2023-02-25T07:52:40.646Z,81.88
2023-02-25T07:55:09.262Z,82.10
2023-02-25T07:57:36.883Z,81.85
2023-02-25T08:00:10.297Z,82.23
2023-02-25T08:02:38.300Z,82.26
2023-02-25T08:05:07.177Z,82.53
2023-02-25T08:07:36.376Z,82.38
2023-02-25T08:10:04.428Z,82.38
2023-02-25T08:12:32.232Z,82.66
2023-02-25T08:15:02.057Z,82.67
2023-02-25T08:17:32.531Z,83.63
2023-02-25T08:20:00.222Z,83.39
2023-02-25T08:22:27.901Z,83.77
2023-02-25T08:24:56.998Z,83.99
2023-02-25T08:27:24.702Z,83.95
2023-02-25T08:29:52.360Z,83.70
2023-02-25T08:32:20.346Z,83.67
2023-02-25T08:34:50.627Z,83.79
2023-02-25T08:37:18.377Z,83.43
2023-02-25T08:39:46.230Z,83.91
2023-02-25T08:42:18.873Z,84.06
2023-02-25T08:44:46.615Z,84.07
2023-02-25T08:47:14.318Z,84.50
2023-02-25T08:49:41.932Z,84.59
2023-02-25T08:52:11.826Z,84.26
2023-02-25T08:54:39.553Z,84.16
2023-02-25T08:57:07.236Z,83.83
2023-02-25T08:59:36.829Z,84.05
2023-02-25T09:02:06.296Z,83.86
2023-02-25T09:04:34.919Z,83.77
2023-02-25T09:07:03.252Z,84.08
2023-02-25T09:09:31.899Z,83.21
2023-02-25T09:11:59.590Z,82.79
2023-02-25T09:14:27.305Z,82.68
2023-02-25T09:16:56.439Z,82.59
2023-02-25T09:19:24.363Z,82.74
2023-02-25T09:21:52.076Z,82.17
2023-02-25T09:24:20.088Z,80.75
2023-02-25T09:26:48.034Z,79.65
2023-02-25T09:29:15.845Z,78.76
2023-02-25T09:31:43.731Z,78.71
2023-02-25T09:34:14.517Z,78.38
2023-02-25T09:36:42.807Z,78.17
2023-02-25T09:39:10.654Z,78.13
2023-02-25T09:41:43.964Z,76.03
2023-02-25T09:44:15.405Z,75.11
2023-02-25T09:46:47.515Z,73.73
2023-02-25T09:49:21.743Z,73.77
2023-02-25T09:51:53.037Z,71.99
2023-02-25T09:54:24.336Z,71.68
2023-02-25T09:56:54.060Z,71.14
2023-02-25T09:59:22.302Z,70.56
2023-02-25T10:01:53.119Z,70.83
2023-02-25T10:04:31.974Z,69.96
2023-02-25T10:07:04.504Z,68.52
2023-02-25T10:09:38.003Z,68.35
2023-02-25T10:12:10.107Z,67.36
2023-02-25T10:14:53.144Z,67.38
2023-02-25T10:17:27.194Z,64.18
2023-02-25T10:20:31.498Z,62.53
2023-02-25T10:23:05.030Z,60.72
2023-02-25T10:25:36.456Z,60.12
2023-02-25T10:28:07.547Z,60.94
2023-02-25T10:30:39.430Z,59.92
2023-02-25T10:33:14.802Z,59.90
2023-02-25T10:35:44.038Z,58.89
2023-02-25T10:38:12.761Z,60.01
2023-02-25T10:40:41.159Z,59.52
2023-02-25T10:43:20.069Z,59.26
2023-02-25T10:45:48.638Z,58.63
2023-02-25T10:48:22.077Z,58.65
2023-02-25T10:51:05.686Z,58.85
2023-02-25T10:53:34.039Z,57.61
2023-02-25T10:56:02.748Z,57.56
2023-02-25T10:58:37.578Z,58.85
2023-02-25T11:01:09.435Z,57.70
2023-02-25T11:03:47.190Z,56.09
2023-02-25T11:06:22.749Z,57.02
2023-02-25T11:08:51.246Z,54.42
2023-02-25T11:11:22.156Z,53.75
2023-02-25T11:14:02.309Z,54.39
2023-02-25T11:16:31.199Z,54.86
2023-02-25T11:19:01.209Z,52.82
2023-02-25T11:21:33.769Z,52.65
2023-02-25T11:24:03.626Z,52.54
2023-02-25T11:26:34.355Z,53.86
2023-02-25T11:29:04.045Z,53.80
2023-02-25T11:31:35.527Z,49.86
2023-02-25T11:34:07.018Z,48.26
2023-02-25T11:36:38.176Z,48.33
2023-02-25T11:39:14.904Z,48.91
2023-02-25T11:41:44.057Z,50.83
2023-02-25T11:44:24.176Z,49.21
2023-02-25T11:46:58.583Z,48.09
2023-02-25T11:49:34.254Z,47.03
2023-02-25T11:52:07.520Z,46.55
2023-02-25T11:54:41.537Z,47.42
2023-02-25T11:57:12.654Z,48.15
2023-02-25T11:59:45.232Z,47.08
2023-02-25T12:02:23.962Z,47.35
2023-02-25T12:05:23.982Z,47.12
2023-02-25T12:08:13.020Z,48.64
2023-02-25T12:11:14.111Z,49.05
2023-02-25T12:13:57.402Z,49.76
2023-02-25T12:17:03.120Z,49.27
2023-02-25T12:20:10.035Z,50.05
2023-02-25T12:22:53.484Z,49.93
2023-02-25T12:25:31.951Z,50.11
2023-02-25T12:28:17.130Z,49.65
2023-02-25T12:31:12.291Z,49.12
2023-02-25T12:34:13.257Z,49.33
2023-02-25T12:36:57.049Z,48.03
2023-02-25T12:39:46.491Z,47.15
2023-02-25T12:42:27.130Z,46.72
2023-02-25T12:45:10.373Z,46.33
2023-02-25T12:47:47.756Z,45.71
2023-02-25T12:50:38.888Z,46.01
2023-02-25T12:53:21.037Z,47.63
2023-02-25T12:56:19.983Z,44.47
2023-02-25T12:59:01.285Z,44.72
2023-02-25T13:01:44.016Z,45.80
2023-02-25T13:04:28.280Z,45.60
2023-02-25T13:07:31.812Z,43.73
2023-02-25T13:10:07.143Z,45.91
2023-02-25T13:12:53.253Z,44.93
2023-02-25T13:15:27.014Z,45.86
2023-02-25T13:18:19.018Z,46.14
2023-02-25T13:21:16.305Z,45.32
2023-02-25T13:24:06.970Z,44.86
2023-02-25T13:26:46.791Z,44.32
2023-02-25T13:29:24.369Z,44.12
2023-02-25T13:32:02.196Z,46.80
2023-02-25T13:34:36.980Z,46.05
2023-02-25T13:37:24.656Z,46.34
2023-02-25T13:40:05.240Z,46.19
2023-02-25T13:42:51.639Z,44.70
2023-02-25T13:45:42.283Z,43.06
2023-02-25T13:48:41.143Z,42.73
2023-02-25T13:51:24.562Z,44.06
2023-02-25T13:54:07.818Z,43.11
2023-02-25T13:56:51.353Z,43.32
2023-02-25T13:59:32.210Z,46.56
2023-02-25T14:02:17.952Z,44.98
2023-02-25T14:05:05.936Z,44.76
2023-02-25T14:07:50.403Z,43.92
2023-02-25T14:10:34.549Z,41.23
2023-02-25T14:13:21.717Z,42.41
2023-02-25T14:15:59.307Z,43.65
2023-02-25T14:18:37.848Z,44.79
2023-02-25T14:21:32.340Z,42.38
2023-02-25T14:24:02.926Z,42.39
2023-02-25T14:26:37.371Z,41.79
2023-02-25T14:29:15.382Z,41.47
2023-02-25T14:31:55.971Z,41.72
2023-02-25T14:34:31.786Z,42.94
2023-02-25T14:37:09.818Z,44.10
2023-02-25T14:39:46.310Z,42.58
2023-02-25T14:42:24.960Z,43.34
2023-02-25T14:44:57.502Z,43.45
2023-02-25T14:47:29.360Z,43.02
2023-02-25T14:50:00.374Z,42.21
2023-02-25T14:52:40.117Z,42.87
2023-02-25T14:56:26.008Z,41.13
2023-02-25T14:59:36.085Z,41.42
2023-02-25T15:02:31.335Z,41.64
2023-02-25T15:05:12.319Z,41.82
2023-02-25T15:07:55.732Z,41.44
2023-02-25T15:10:31.551Z,42.39
2023-02-25T15:13:30.445Z,42.55
2023-02-25T15:16:41.199Z,41.40
2023-02-25T15:19:37.944Z,41.93
2023-02-25T15:22:22.399Z,42.18
2023-02-25T15:24:51.143Z,41.65
2023-02-25T15:27:47.961Z,41.67
2023-02-25T15:30:17.989Z,42.42
2023-02-25T15:33:07.894Z,41.92
2023-02-25T15:35:58.468Z,42.77
2023-02-25T15:38:47.020Z,42.30
2023-02-25T15:41:44.674Z,43.20
2023-02-25T15:44:35.931Z,43.27
2023-02-25T15:47:20.093Z,43.25
2023-02-25T15:49:49.457Z,43.78
2023-02-25T15:52:55.707Z,44.22
2023-02-25T15:55:39.370Z,44.16
2023-02-25T15:58:44.985Z,44.67
2023-02-25T16:01:30.786Z,44.92
2023-02-25T16:03:58.714Z,45.21
2023-02-25T16:06:32.842Z,45.70
2023-02-25T16:09:07.926Z,45.85
2023-02-25T16:11:38.781Z,45.89
2023-02-25T16:14:09.248Z,46.25
2023-02-25T16:16:40.921Z,46.97
2023-02-25T16:19:10.709Z,46.43
2023-02-25T16:21:44.493Z,46.41
2023-02-25T16:24:14.410Z,46.70
2023-02-25T16:26:45.867Z,47.04
2023-02-25T16:29:24.787Z,46.32
2023-02-25T16:31:58.053Z,47.13
2023-02-25T16:34:30.356Z,46.30
2023-02-25T16:37:07.763Z,45.72
2023-02-25T16:39:37.970Z,46.49
2023-02-25T16:42:07.044Z,46.31
2023-02-25T16:44:39.139Z,46.10
2023-02-25T16:47:07.650Z,46.40
2023-02-25T16:49:39.151Z,46.11
2023-02-25T16:52:07.189Z,46.78
2023-02-25T16:54:38.855Z,46.90
2023-02-25T16:57:09.460Z,47.11
2023-02-25T16:59:38.683Z,47.37
2023-02-25T17:02:23.918Z,47.78
2023-02-25T17:04:53.150Z,47.77
2023-02-25T17:07:25.399Z,47.93
2023-02-25T17:09:56.706Z,47.65
2023-02-25T17:12:31.740Z,48.14
2023-02-25T17:15:01.064Z,48.38
2023-02-25T17:17:32.982Z,47.94
2023-02-25T17:20:02.599Z,48.60
2023-02-25T17:22:32.511Z,48.33
2023-02-25T17:25:02.090Z,48.45
2023-02-25T17:27:29.778Z,48.36
2023-02-25T17:29:57.668Z,48.33
2023-02-25T17:32:28.172Z,48.57
2023-02-25T17:48:30.896Z,52.22
2023-02-25T17:51:00.740Z,52.41
2023-02-25T17:53:39.147Z,51.13
2023-02-25T17:56:12.534Z,50.50
2023-02-25T17:58:40.274Z,50.62
2023-02-25T18:01:10.113Z,50.69
2023-02-25T18:03:46.701Z,50.46
2023-02-25T18:06:33.337Z,50.33
2023-02-25T18:09:02.865Z,50.66
2023-02-25T18:11:32.455Z,50.49
2023-02-25T18:14:02.258Z,50.68
2023-02-25T18:16:37.805Z,50.71
2023-02-25T18:19:28.754Z,50.64
2023-02-25T18:21:56.495Z,50.67
2023-02-25T18:24:30.809Z,51.62
2023-02-25T18:27:08.066Z,51.01
2023-02-25T18:29:36.259Z,51.32
2023-02-25T18:32:05.336Z,50.90
2023-02-25T18:34:34.565Z,50.85
2023-02-25T18:37:02.608Z,51.80
2023-02-25T18:39:30.331Z,52.33
2023-02-25T18:41:58.009Z,52.25
2023-02-25T18:44:25.690Z,52.07
2023-02-25T18:46:53.399Z,52.37
2023-02-25T18:49:21.169Z,53.02
2023-02-25T18:51:52.270Z,52.94
2023-02-25T18:54:19.939Z,53.55
2023-02-25T18:56:48.192Z,53.40
2023-02-25T18:59:15.903Z,53.98
2023-02-25T19:01:44.034Z,54.02
2023-02-25T19:04:16.010Z,53.81
2023-02-25T19:06:43.789Z,54.13
2023-02-25T19:09:12.919Z,54.09
2023-02-25T19:11:41.006Z,54.50
2023-02-25T19:14:08.846Z,54.32
2023-02-25T19:16:36.716Z,54.43
2023-02-25T19:19:06.525Z,54.91
2023-02-25T19:21:34.172Z,54.95
2023-02-25T19:24:01.921Z,54.89
2023-02-25T19:26:31.012Z,54.82
2023-02-25T19:28:58.753Z,55.30
2023-02-25T19:31:26.451Z,55.38
2023-02-25T19:33:54.207Z,55.42
2023-02-25T19:36:22.308Z,55.24
2023-02-25T19:38:50.494Z,55.41
2023-02-25T19:41:18.204Z,55.88
2023-02-25T19:43:47.296Z,54.97
2023-02-25T19:46:17.282Z,55.33
2023-02-25T19:48:45.128Z,55.16
2023-02-25T19:51:12.816Z,55.98
2023-02-25T19:53:41.804Z,56.32
2023-02-25T19:56:09.640Z,55.92
2023-02-25T19:58:37.344Z,56.30
2023-02-25T20:01:10.557Z,56.24
2023-02-25T20:03:38.357Z,55.86
2023-02-25T20:06:07.799Z,55.96
2023-02-25T20:08:36.448Z,56.23
2023-02-25T20:11:04.423Z,56.32
2023-02-25T20:13:32.096Z,56.68
2023-02-25T20:16:03.275Z,57.54
2023-02-25T20:18:32.464Z,57.66
2023-02-25T20:21:00.209Z,57.71
2023-02-25T20:23:28.212Z,57.64
2023-02-25T20:26:03.965Z,58.57
2023-02-25T20:28:31.689Z,59.76
2023-02-25T20:31:04.835Z,62.30
2023-02-25T20:33:34.786Z,64.33
2023-02-25T20:36:03.500Z,65.55
2023-02-25T20:38:33.677Z,65.62
2023-02-25T20:41:01.591Z,66.30
2023-02-25T20:43:29.476Z,66.11
2023-02-25T20:45:57.970Z,65.84
2023-02-25T20:48:28.405Z,65.58
2023-02-25T20:50:58.108Z,65.51
2023-02-25T20:53:26.442Z,65.62
2023-02-25T20:55:55.441Z,65.51
2023-02-25T20:58:23.240Z,65.67
2023-02-25T21:00:51.027Z,64.95
2023-02-25T21:03:18.753Z,65.08
2023-02-25T21:05:46.476Z,65.22
2023-02-25T21:08:15.711Z,65.60
2023-02-25T21:10:44.228Z,65.76
2023-02-25T21:13:11.974Z,65.36
2023-02-25T21:15:40.180Z,65.68
2023-02-25T21:18:08.039Z,65.44
2023-02-25T21:20:35.687Z,65.26
2023-02-25T21:23:03.509Z,65.68
2023-02-25T21:25:34.666Z,65.74
2023-02-25T21:28:02.424Z,65.95
2023-02-25T21:30:30.264Z,65.73
2023-02-25T21:32:58.883Z,65.70
2023-02-25T21:35:26.624Z,66.11
2023-02-25T21:37:54.408Z,66.16
2023-02-25T21:40:22.293Z,66.47
2023-02-25T21:42:51.428Z,66.53
2023-02-25T21:45:19.148Z,66.68
2023-02-25T21:47:47.243Z,66.53
2023-02-25T21:50:14.967Z,67.26
2023-02-25T21:52:42.724Z,67.50
2023-02-25T21:55:11.214Z,67.73
2023-02-25T21:57:39.488Z,67.48
2023-02-25T22:00:11.322Z,67.33
2023-02-25T22:02:39.135Z,67.34
2023-02-25T22:05:08.840Z,67.57
2023-02-25T22:07:38.944Z,67.70
2023-02-25T22:10:08.836Z,67.87
2023-02-25T22:12:39.477Z,67.57
2023-02-25T22:15:09.876Z,67.98
2023-02-25T22:17:37.926Z,67.77
2023-02-25T22:20:06.243Z,67.89
2023-02-25T22:22:33.999Z,67.80
2023-02-25T22:25:03.404Z,67.83
2023-02-25T22:27:31.637Z,67.62
2023-02-25T22:29:59.383Z,67.68
2023-02-25T22:32:28.507Z,67.99
2023-02-25T22:34:56.102Z,68.44
2023-02-25T22:37:23.840Z,68.14
2023-02-25T22:39:51.546Z,67.90
2023-02-25T22:42:19.208Z,67.96
2023-02-25T22:44:46.940Z,67.67
2023-02-25T22:47:14.635Z,68.21
2023-02-25T22:49:45.645Z,68.67
2023-02-25T22:52:13.332Z,68.86
2023-02-25T22:54:41.265Z,68.30
2023-02-25T22:57:09.295Z,68.27
2023-02-25T22:59:37.007Z,68.58
2023-02-25T23:02:04.790Z,68.64
2023-02-25T23:04:32.841Z,68.81
2023-02-25T23:07:02.122Z,69.07
2023-02-25T23:09:29.906Z,69.09
2023-02-25T23:11:57.591Z,69.14
2023-02-25T23:14:25.265Z,68.97
2023-02-25T23:16:57.159Z,68.90
2023-02-25T23:19:24.883Z,68.97
2023-02-25T23:21:52.617Z,69.41
2023-02-25T23:24:22.868Z,69.74
2023-02-25T23:26:53.620Z,69.85
2023-02-25T23:29:21.467Z,69.48
2023-02-25T23:31:50.774Z,69.64
2023-02-25T23:34:20.858Z,69.80
2023-02-25T23:36:48.585Z,69.27
2023-02-25T23:39:17.272Z,69.31
2023-02-25T23:44:14.685Z,68.88
2023-02-25T23:46:45.031Z,68.74
2023-02-25T23:49:14.672Z,68.77
2023-02-25T23:51:43.404Z,68.44
2023-02-25T23:54:14.298Z,68.52
2023-02-25T23:56:42.057Z,68.60
2023-02-25T23:59:11.440Z,68.53
